sensor_id;sensor_type;location;lat;lon;timestamp;temperature;humidity
54684;DHT22;40582;53.100;6.686;2023-10-09T00:01:08;14.00;99.90
54684;DHT22;40582;53.100;6.686;2023-10-09T00:03:43;14.00;99.90
54684;DHT22;40582;53.100;6.686;2023-10-09T00:06:10;14.00;99.90
54684;DHT22;40582;53.100;6.686;2023-10-09T00:08:39;14.00;99.90
54684;DHT22;40582;53.100;6.686;2023-10-09T00:11:09;14.00;99.90
54684;DHT22;40582;53.100;6.686;2023-10-09T00:13:46;14.00;99.90
54684;DHT22;40582;53.100;6.686;2023-10-09T00:16:16;14.00;99.90
54684;DHT22;40582;53.100;6.686;2023-10-09T00:18:42;14.10;99.90
54684;DHT22;40582;53.100;6.686;2023-10-09T00:21:19;14.00;99.90
54684;DHT22;40582;53.100;6.686;2023-10-09T00:23:48;14.00;99.90
54684;DHT22;40582;53.100;6.686;2023-10-09T00:26:19;14.00;99.90
54684;DHT22;40582;53.100;6.686;2023-10-09T00:28:48;14.00;99.90
54684;DHT22;40582;53.100;6.686;2023-10-09T00:31:17;14.00;99.90
54684;DHT22;40582;53.100;6.686;2023-10-09T00:33:52;14.00;99.90
54684;DHT22;40582;53.100;6.686;2023-10-09T00:36:21;14.00;99.90
54684;DHT22;40582;53.100;6.686;2023-10-09T00:38:53;14.00;99.90
54684;DHT22;40582;53.100;6.686;2023-10-09T00:41:20;14.00;99.90
54684;DHT22;40582;53.100;6.686;2023-10-09T00:43:48;14.10;99.90
54684;DHT22;40582;53.100;6.686;2023-10-09T00:46:17;14.10;99.90
54684;DHT22;40582;53.100;6.686;2023-10-09T00:48:57;14.00;99.90
54684;DHT22;40582;53.100;6.686;2023-10-09T00:51:26;14.10;99.90
54684;DHT22;40582;53.100;6.686;2023-10-09T00:53:55;14.00;99.90
54684;DHT22;40582;53.100;6.686;2023-10-09T00:56:23;14.10;99.90
54684;DHT22;40582;53.100;6.686;2023-10-09T00:58:59;14.10;99.90
54684;DHT22;40582;53.100;6.686;2023-10-09T01:01:36;14.10;99.90
54684;DHT22;40582;53.100;6.686;2023-10-09T01:04:06;14.10;99.90
54684;DHT22;40582;53.100;6.686;2023-10-09T01:06:42;14.10;99.90
54684;DHT22;40582;53.100;6.686;2023-10-09T01:09:13;14.10;99.90
54684;DHT22;40582;53.100;6.686;2023-10-09T01:11:43;14.20;99.90
54684;DHT22;40582;53.100;6.686;2023-10-09T01:14:24;14.20;99.90
54684;DHT22;40582;53.100;6.686;2023-10-09T01:16:50;14.10;99.90
54684;DHT22;40582;53.100;6.686;2023-10-09T01:19:19;14.10;99.90
54684;DHT22;40582;53.100;6.686;2023-10-09T01:21:54;14.10;99.90
54684;DHT22;40582;53.100;6.686;2023-10-09T01:24:20;14.10;99.90
54684;DHT22;40582;53.100;6.686;2023-10-09T01:26:47;14.10;99.90
54684;DHT22;40582;53.100;6.686;2023-10-09T01:29:14;14.00;99.90
54684;DHT22;40582;53.100;6.686;2023-10-09T01:31:42;14.00;99.90
54684;DHT22;40582;53.100;6.686;2023-10-09T01:34:24;14.10;99.90
54684;DHT22;40582;53.100;6.686;2023-10-09T01:36:51;14.00;99.90
54684;DHT22;40582;53.100;6.686;2023-10-09T01:39:20;14.00;99.90
54684;DHT22;40582;53.100;6.686;2023-10-09T01:41:51;14.00;99.90
54684;DHT22;40582;53.100;6.686;2023-10-09T01:44:33;14.00;99.90
54684;DHT22;40582;53.100;6.686;2023-10-09T01:47:09;14.00;99.90
54684;DHT22;40582;53.100;6.686;2023-10-09T01:49:39;14.00;99.90
54684;DHT22;40582;53.100;6.686;2023-10-09T01:52:12;14.00;99.90
54684;DHT22;40582;53.100;6.686;2023-10-09T01:54:50;14.00;99.90
54684;DHT22;40582;53.100;6.686;2023-10-09T01:57:18;14.00;99.90
54684;DHT22;40582;53.100;6.686;2023-10-09T01:59:51;14.00;99.90
54684;DHT22;40582;53.100;6.686;2023-10-09T02:02:22;14.00;99.90
54684;DHT22;40582;53.100;6.686;2023-10-09T02:04:54;13.90;99.90
54684;DHT22;40582;53.100;6.686;2023-10-09T02:07:30;13.90;99.90
54684;DHT22;40582;53.100;6.686;2023-10-09T02:10:06;13.90;99.90
54684;DHT22;40582;53.100;6.686;2023-10-09T02:12:37;13.80;99.90
54684;DHT22;40582;53.100;6.686;2023-10-09T02:15:03;13.90;99.90
54684;DHT22;40582;53.100;6.686;2023-10-09T02:17:41;13.90;99.90
54684;DHT22;40582;53.100;6.686;2023-10-09T02:20:18;13.90;99.90
54684;DHT22;40582;53.100;6.686;2023-10-09T02:22:45;13.90;99.90
54684;DHT22;40582;53.100;6.686;2023-10-09T02:25:11;13.90;99.90
54684;DHT22;40582;53.100;6.686;2023-10-09T02:27:38;13.90;99.90
54684;DHT22;40582;53.100;6.686;2023-10-09T02:30:19;13.90;99.90
54684;DHT22;40582;53.100;6.686;2023-10-09T02:32:53;13.90;99.90
54684;DHT22;40582;53.100;6.686;2023-10-09T02:35:24;14.00;99.90
54684;DHT22;40582;53.100;6.686;2023-10-09T02:38:08;13.90;99.90
54684;DHT22;40582;53.100;6.686;2023-10-09T02:40:37;13.90;99.90
54684;DHT22;40582;53.100;6.686;2023-10-09T02:43:18;13.90;99.90
54684;DHT22;40582;53.100;6.686;2023-10-09T02:45:44;13.90;99.90
54684;DHT22;40582;53.100;6.686;2023-10-09T02:48:18;13.80;99.90
54684;DHT22;40582;53.100;6.686;2023-10-09T02:50:51;13.80;99.90
54684;DHT22;40582;53.100;6.686;2023-10-09T02:53:17;13.80;99.90
54684;DHT22;40582;53.100;6.686;2023-10-09T02:55:55;13.80;99.90
54684;DHT22;40582;53.100;6.686;2023-10-09T02:58:39;13.80;99.90
54684;DHT22;40582;53.100;6.686;2023-10-09T03:01:10;13.80;99.90
54684;DHT22;40582;53.100;6.686;2023-10-09T03:03:39;13.80;99.90
54684;DHT22;40582;53.100;6.686;2023-10-09T03:06:06;13.80;99.90
54684;DHT22;40582;53.100;6.686;2023-10-09T03:08:37;13.80;99.90
54684;DHT22;40582;53.100;6.686;2023-10-09T03:11:04;13.80;99.90
54684;DHT22;40582;53.100;6.686;2023-10-09T03:13:31;13.90;99.90
54684;DHT22;40582;53.100;6.686;2023-10-09T03:15:59;13.90;99.90
54684;DHT22;40582;53.100;6.686;2023-10-09T03:18:27;13.90;99.90
54684;DHT22;40582;53.100;6.686;2023-10-09T03:20:53;13.90;99.90
54684;DHT22;40582;53.100;6.686;2023-10-09T03:23:21;13.90;99.90
54684;DHT22;40582;53.100;6.686;2023-10-09T03:25:47;13.90;99.90
54684;DHT22;40582;53.100;6.686;2023-10-09T03:28:15;13.90;99.90
54684;DHT22;40582;53.100;6.686;2023-10-09T03:30:41;13.90;99.90
54684;DHT22;40582;53.100;6.686;2023-10-09T03:33:10;13.90;99.90
54684;DHT22;40582;53.100;6.686;2023-10-09T03:35:37;14.00;99.90
54684;DHT22;40582;53.100;6.686;2023-10-09T03:38:04;14.00;99.90
54684;DHT22;40582;53.100;6.686;2023-10-09T03:40:45;14.00;99.90
54684;DHT22;40582;53.100;6.686;2023-10-09T03:43:14;14.00;99.90
54684;DHT22;40582;53.100;6.686;2023-10-09T03:45:40;14.00;99.90
54684;DHT22;40582;53.100;6.686;2023-10-09T03:48:19;14.00;99.90
54684;DHT22;40582;53.100;6.686;2023-10-09T03:50:51;14.00;99.90
54684;DHT22;40582;53.100;6.686;2023-10-09T03:53:36;14.00;99.90
54684;DHT22;40582;53.100;6.686;2023-10-09T03:56:06;14.10;99.90
54684;DHT22;40582;53.100;6.686;2023-10-09T03:58:38;14.10;99.90
54684;DHT22;40582;53.100;6.686;2023-10-09T04:01:11;14.10;99.90
54684;DHT22;40582;53.100;6.686;2023-10-09T04:03:44;14.10;99.90
54684;DHT22;40582;53.100;6.686;2023-10-09T04:06:10;14.20;99.90
54684;DHT22;40582;53.100;6.686;2023-10-09T04:08:36;14.10;99.90
54684;DHT22;40582;53.100;6.686;2023-10-09T04:11:05;14.20;99.90
54684;DHT22;40582;53.100;6.686;2023-10-09T04:13:45;14.20;99.90
54684;DHT22;40582;53.100;6.686;2023-10-09T04:16:15;14.20;99.90
54684;DHT22;40582;53.100;6.686;2023-10-09T04:18:53;14.20;99.90
54684;DHT22;40582;53.100;6.686;2023-10-09T04:21:24;14.20;99.90
54684;DHT22;40582;53.100;6.686;2023-10-09T04:24:03;14.30;99.90
54684;DHT22;40582;53.100;6.686;2023-10-09T04:26:43;14.30;99.90
54684;DHT22;40582;53.100;6.686;2023-10-09T04:29:12;14.30;99.90
54684;DHT22;40582;53.100;6.686;2023-10-09T04:31:52;14.30;99.90
54684;DHT22;40582;53.100;6.686;2023-10-09T04:34:21;14.30;99.90
54684;DHT22;40582;53.100;6.686;2023-10-09T04:36:48;14.30;99.90
54684;DHT22;40582;53.100;6.686;2023-10-09T04:39:29;14.30;99.90
54684;DHT22;40582;53.100;6.686;2023-10-09T04:41:58;14.40;99.90
54684;DHT22;40582;53.100;6.686;2023-10-09T04:44:43;14.40;99.90
54684;DHT22;40582;53.100;6.686;2023-10-09T04:47:44;14.40;99.90
54684;DHT22;40582;53.100;6.686;2023-10-09T04:50:23;14.40;99.90
54684;DHT22;40582;53.100;6.686;2023-10-09T04:52:54;14.40;99.90
54684;DHT22;40582;53.100;6.686;2023-10-09T04:55:20;14.40;99.90
54684;DHT22;40582;53.100;6.686;2023-10-09T04:57:50;14.40;99.90
54684;DHT22;40582;53.100;6.686;2023-10-09T05:00:35;14.40;99.90
54684;DHT22;40582;53.100;6.686;2023-10-09T05:03:12;14.40;99.90
54684;DHT22;40582;53.100;6.686;2023-10-09T05:05:50;14.40;99.90
54684;DHT22;40582;53.100;6.686;2023-10-09T05:08:24;14.50;99.90
54684;DHT22;40582;53.100;6.686;2023-10-09T05:10:55;14.50;99.90
54684;DHT22;40582;53.100;6.686;2023-10-09T05:16:06;14.50;99.90
54684;DHT22;40582;53.100;6.686;2023-10-09T05:18:41;14.50;99.90
54684;DHT22;40582;53.100;6.686;2023-10-09T05:21:10;14.50;99.90
54684;DHT22;40582;53.100;6.686;2023-10-09T05:23:39;14.50;99.90
54684;DHT22;40582;53.100;6.686;2023-10-09T05:26:34;14.50;99.90
54684;DHT22;40582;53.100;6.686;2023-10-09T05:29:24;14.50;99.90
54684;DHT22;40582;53.100;6.686;2023-10-09T05:32:04;14.60;99.90
54684;DHT22;40582;53.100;6.686;2023-10-09T05:34:43;14.60;99.90
54684;DHT22;40582;53.100;6.686;2023-10-09T05:37:25;14.60;99.90
54684;DHT22;40582;53.100;6.686;2023-10-09T05:39:52;14.60;99.90
54684;DHT22;40582;53.100;6.686;2023-10-09T05:42:31;14.60;99.90
54684;DHT22;40582;53.100;6.686;2023-10-09T05:45:07;14.60;99.90
54684;DHT22;40582;53.100;6.686;2023-10-09T05:47:45;14.60;99.90
54684;DHT22;40582;53.100;6.686;2023-10-09T05:50:27;14.70;99.90
54684;DHT22;40582;53.100;6.686;2023-10-09T05:52:57;14.70;99.90
54684;DHT22;40582;53.100;6.686;2023-10-09T05:55:51;14.70;99.90
54684;DHT22;40582;53.100;6.686;2023-10-09T05:58:36;14.70;99.90
54684;DHT22;40582;53.100;6.686;2023-10-09T06:01:20;14.70;99.90
54684;DHT22;40582;53.100;6.686;2023-10-09T06:04:04;14.70;99.90
54684;DHT22;40582;53.100;6.686;2023-10-09T06:06:41;14.70;99.90
54684;DHT22;40582;53.100;6.686;2023-10-09T06:09:21;14.80;99.90
54684;DHT22;40582;53.100;6.686;2023-10-09T06:11:48;14.80;99.90
54684;DHT22;40582;53.100;6.686;2023-10-09T06:14:16;14.80;99.90
54684;DHT22;40582;53.100;6.686;2023-10-09T06:16:54;14.80;99.90
54684;DHT22;40582;53.100;6.686;2023-10-09T06:19:26;14.90;99.90
54684;DHT22;40582;53.100;6.686;2023-10-09T06:22:00;14.90;99.90
54684;DHT22;40582;53.100;6.686;2023-10-09T06:24:38;14.90;99.90
54684;DHT22;40582;53.100;6.686;2023-10-09T06:27:20;14.90;99.90
54684;DHT22;40582;53.100;6.686;2023-10-09T06:29:56;14.90;99.90
54684;DHT22;40582;53.100;6.686;2023-10-09T06:32:50;15.00;99.90
54684;DHT22;40582;53.100;6.686;2023-10-09T06:35:45;15.00;99.90
54684;DHT22;40582;53.100;6.686;2023-10-09T06:38:19;15.00;99.90
54684;DHT22;40582;53.100;6.686;2023-10-09T06:40:50;15.00;99.90
54684;DHT22;40582;53.100;6.686;2023-10-09T06:43:42;15.10;99.90
54684;DHT22;40582;53.100;6.686;2023-10-09T06:46:15;15.10;99.90
54684;DHT22;40582;53.100;6.686;2023-10-09T06:48:47;15.10;99.90
54684;DHT22;40582;53.100;6.686;2023-10-09T06:51:22;15.10;99.90
54684;DHT22;40582;53.100;6.686;2023-10-09T06:53:54;15.20;99.90
54684;DHT22;40582;53.100;6.686;2023-10-09T06:56:27;15.20;99.90
54684;DHT22;40582;53.100;6.686;2023-10-09T07:01:30;15.20;99.90
54684;DHT22;40582;53.100;6.686;2023-10-09T07:04:05;15.20;99.90
54684;DHT22;40582;53.100;6.686;2023-10-09T07:06:50;15.20;99.90
54684;DHT22;40582;53.100;6.686;2023-10-09T07:09:22;15.20;99.90
54684;DHT22;40582;53.100;6.686;2023-10-09T07:11:49;15.10;99.90
54684;DHT22;40582;53.100;6.686;2023-10-09T07:14:20;15.20;99.90
54684;DHT22;40582;53.100;6.686;2023-10-09T07:17:08;15.30;99.90
54684;DHT22;40582;53.100;6.686;2023-10-09T07:19:53;15.30;99.90
54684;DHT22;40582;53.100;6.686;2023-10-09T07:22:19;15.20;99.90
54684;DHT22;40582;53.100;6.686;2023-10-09T07:24:45;15.20;99.90
54684;DHT22;40582;53.100;6.686;2023-10-09T07:27:37;15.30;99.90
54684;DHT22;40582;53.100;6.686;2023-10-09T07:30:11;15.30;99.90
54684;DHT22;40582;53.100;6.686;2023-10-09T07:33:02;15.30;99.90
54684;DHT22;40582;53.100;6.686;2023-10-09T07:38:24;15.40;99.90
54684;DHT22;40582;53.100;6.686;2023-10-09T07:41:01;15.30;99.90
54684;DHT22;40582;53.100;6.686;2023-10-09T07:43:34;15.40;99.90
54684;DHT22;40582;53.100;6.686;2023-10-09T07:46:20;15.40;99.90
54684;DHT22;40582;53.100;6.686;2023-10-09T07:49:03;15.40;99.90
54684;DHT22;40582;53.100;6.686;2023-10-09T07:51:36;15.50;99.90
54684;DHT22;40582;53.100;6.686;2023-10-09T07:54:03;15.60;99.90
54684;DHT22;40582;53.100;6.686;2023-10-09T07:56:38;15.60;99.90
54684;DHT22;40582;53.100;6.686;2023-10-09T07:59:10;15.60;99.90
54684;DHT22;40582;53.100;6.686;2023-10-09T08:01:44;15.60;99.90
54684;DHT22;40582;53.100;6.686;2023-10-09T08:04:28;15.60;99.90
54684;DHT22;40582;53.100;6.686;2023-10-09T08:07:08;15.70;99.90
54684;DHT22;40582;53.100;6.686;2023-10-09T08:09:35;15.60;99.90
54684;DHT22;40582;53.100;6.686;2023-10-09T08:12:12;15.70;99.90
54684;DHT22;40582;53.100;6.686;2023-10-09T08:15:02;15.70;99.90
54684;DHT22;40582;53.100;6.686;2023-10-09T08:17:56;15.70;99.90
54684;DHT22;40582;53.100;6.686;2023-10-09T08:20:25;15.70;99.90
54684;DHT22;40582;53.100;6.686;2023-10-09T08:22:53;15.70;99.90
54684;DHT22;40582;53.100;6.686;2023-10-09T08:25:22;15.80;99.90
54684;DHT22;40582;53.100;6.686;2023-10-09T08:28:01;15.80;99.90
54684;DHT22;40582;53.100;6.686;2023-10-09T08:30:40;15.80;99.90
54684;DHT22;40582;53.100;6.686;2023-10-09T08:33:21;15.90;99.90
54684;DHT22;40582;53.100;6.686;2023-10-09T08:35:56;15.90;99.90
54684;DHT22;40582;53.100;6.686;2023-10-09T08:38:29;15.90;99.90
54684;DHT22;40582;53.100;6.686;2023-10-09T08:41:25;15.90;99.90
54684;DHT22;40582;53.100;6.686;2023-10-09T08:43:55;15.90;99.90
54684;DHT22;40582;53.100;6.686;2023-10-09T08:46:27;15.80;99.90
54684;DHT22;40582;53.100;6.686;2023-10-09T08:48:55;15.80;99.90
54684;DHT22;40582;53.100;6.686;2023-10-09T08:51:23;15.80;99.90
54684;DHT22;40582;53.100;6.686;2023-10-09T08:53:50;15.80;99.90
54684;DHT22;40582;53.100;6.686;2023-10-09T08:56:19;15.80;99.90
54684;DHT22;40582;53.100;6.686;2023-10-09T08:58:57;15.80;99.90
54684;DHT22;40582;53.100;6.686;2023-10-09T09:01:23;15.80;99.90
54684;DHT22;40582;53.100;6.686;2023-10-09T09:03:50;15.80;99.90
54684;DHT22;40582;53.100;6.686;2023-10-09T09:06:19;15.90;99.90
54684;DHT22;40582;53.100;6.686;2023-10-09T09:08:46;16.00;99.90
54684;DHT22;40582;53.100;6.686;2023-10-09T09:11:16;16.00;99.90
54684;DHT22;40582;53.100;6.686;2023-10-09T09:13:45;16.10;99.90
54684;DHT22;40582;53.100;6.686;2023-10-09T09:16:21;16.10;99.90
54684;DHT22;40582;53.100;6.686;2023-10-09T09:18:53;16.20;99.90
54684;DHT22;40582;53.100;6.686;2023-10-09T09:21:48;16.30;99.90
54684;DHT22;40582;53.100;6.686;2023-10-09T09:24:14;16.40;99.90
54684;DHT22;40582;53.100;6.686;2023-10-09T09:26:57;16.40;99.90
54684;DHT22;40582;53.100;6.686;2023-10-09T09:32:04;16.50;99.90
54684;DHT22;40582;53.100;6.686;2023-10-09T09:34:53;16.50;99.90
54684;DHT22;40582;53.100;6.686;2023-10-09T09:37:24;16.50;99.90
54684;DHT22;40582;53.100;6.686;2023-10-09T09:40:03;16.50;99.90
54684;DHT22;40582;53.100;6.686;2023-10-09T09:42:43;16.60;99.90
54684;DHT22;40582;53.100;6.686;2023-10-09T09:45:14;16.60;99.90
54684;DHT22;40582;53.100;6.686;2023-10-09T09:47:43;16.50;99.90
54684;DHT22;40582;53.100;6.686;2023-10-09T09:50:17;16.60;99.90
54684;DHT22;40582;53.100;6.686;2023-10-09T09:52:50;16.70;99.90
54684;DHT22;40582;53.100;6.686;2023-10-09T09:55:25;16.70;99.90
54684;DHT22;40582;53.100;6.686;2023-10-09T09:57:56;16.80;99.90
54684;DHT22;40582;53.100;6.686;2023-10-09T10:00:28;16.90;99.90
54684;DHT22;40582;53.100;6.686;2023-10-09T10:03:22;17.00;99.90
54684;DHT22;40582;53.100;6.686;2023-10-09T10:05:51;17.00;99.90
54684;DHT22;40582;53.100;6.686;2023-10-09T10:08:19;17.00;99.90
54684;DHT22;40582;53.100;6.686;2023-10-09T10:10:46;17.10;99.90
54684;DHT22;40582;53.100;6.686;2023-10-09T10:16:11;17.00;99.90
54684;DHT22;40582;53.100;6.686;2023-10-09T10:21:33;16.90;99.90
54684;DHT22;40582;53.100;6.686;2023-10-09T10:35:18;16.90;99.90
54684;DHT22;40582;53.100;6.686;2023-10-09T10:37:46;16.80;99.90
54684;DHT22;40582;53.100;6.686;2023-10-09T10:40:27;16.80;99.90
54684;DHT22;40582;53.100;6.686;2023-10-09T10:43:18;16.70;99.90
54684;DHT22;40582;53.100;6.686;2023-10-09T10:46:06;16.70;99.90
54684;DHT22;40582;53.100;6.686;2023-10-09T10:49:03;16.70;99.90
54684;DHT22;40582;53.100;6.686;2023-10-09T10:51:46;16.70;99.90
54684;DHT22;40582;53.100;6.686;2023-10-09T10:54:25;16.70;99.90
54684;DHT22;40582;53.100;6.686;2023-10-09T10:56:56;16.70;99.90
54684;DHT22;40582;53.100;6.686;2023-10-09T10:59:23;16.80;99.90
54684;DHT22;40582;53.100;6.686;2023-10-09T11:01:51;16.80;99.90
54684;DHT22;40582;53.100;6.686;2023-10-09T11:04:29;16.70;99.90
54684;DHT22;40582;53.100;6.686;2023-10-09T11:06:59;16.70;99.90
54684;DHT22;40582;53.100;6.686;2023-10-09T11:09:56;16.70;99.90
54684;DHT22;40582;53.100;6.686;2023-10-09T11:12:51;16.70;99.90
54684;DHT22;40582;53.100;6.686;2023-10-09T11:15:17;16.70;99.90
54684;DHT22;40582;53.100;6.686;2023-10-09T11:18:08;16.70;99.90
54684;DHT22;40582;53.100;6.686;2023-10-09T11:20:35;16.70;99.90
54684;DHT22;40582;53.100;6.686;2023-10-09T11:23:03;16.70;99.90
54684;DHT22;40582;53.100;6.686;2023-10-09T11:25:53;16.70;99.90
54684;DHT22;40582;53.100;6.686;2023-10-09T11:28:25;16.70;99.90
54684;DHT22;40582;53.100;6.686;2023-10-09T11:31:05;16.70;99.90
54684;DHT22;40582;53.100;6.686;2023-10-09T11:33:45;16.70;99.90
54684;DHT22;40582;53.100;6.686;2023-10-09T11:36:11;16.60;99.90
54684;DHT22;40582;53.100;6.686;2023-10-09T11:38:38;16.60;99.90
54684;DHT22;40582;53.100;6.686;2023-10-09T11:41:16;16.60;99.90
54684;DHT22;40582;53.100;6.686;2023-10-09T11:43:50;16.60;99.90
54684;DHT22;40582;53.100;6.686;2023-10-09T11:46:22;16.60;99.90
54684;DHT22;40582;53.100;6.686;2023-10-09T11:49:09;16.60;99.90
54684;DHT22;40582;53.100;6.686;2023-10-09T11:51:51;16.70;99.90
54684;DHT22;40582;53.100;6.686;2023-10-09T11:54:49;16.80;99.90
54684;DHT22;40582;53.100;6.686;2023-10-09T11:57:14;16.80;99.90
54684;DHT22;40582;53.100;6.686;2023-10-09T11:59:42;16.90;99.90
54684;DHT22;40582;53.100;6.686;2023-10-09T12:02:09;16.90;99.90
54684;DHT22;40582;53.100;6.686;2023-10-09T12:04:39;17.00;99.90
54684;DHT22;40582;53.100;6.686;2023-10-09T12:07:10;17.00;99.90
54684;DHT22;40582;53.100;6.686;2023-10-09T12:09:39;17.10;99.90
54684;DHT22;40582;53.100;6.686;2023-10-09T12:12:06;17.30;99.90
54684;DHT22;40582;53.100;6.686;2023-10-09T12:14:33;17.50;99.90
54684;DHT22;40582;53.100;6.686;2023-10-09T12:17:06;17.80;99.90
54684;DHT22;40582;53.100;6.686;2023-10-09T12:19:39;18.00;99.90
54684;DHT22;40582;53.100;6.686;2023-10-09T12:22:06;18.10;99.90
54684;DHT22;40582;53.100;6.686;2023-10-09T12:24:36;18.00;99.90
54684;DHT22;40582;53.100;6.686;2023-10-09T12:27:03;17.80;99.90
54684;DHT22;40582;53.100;6.686;2023-10-09T12:29:35;17.60;99.90
54684;DHT22;40582;53.100;6.686;2023-10-09T12:32:01;17.60;99.90
54684;DHT22;40582;53.100;6.686;2023-10-09T12:34:28;17.40;99.90
54684;DHT22;40582;53.100;6.686;2023-10-09T12:36:56;17.40;99.90
54684;DHT22;40582;53.100;6.686;2023-10-09T12:39:26;17.30;99.90
54684;DHT22;40582;53.100;6.686;2023-10-09T12:41:59;17.40;99.90
54684;DHT22;40582;53.100;6.686;2023-10-09T12:44:32;17.40;99.90
54684;DHT22;40582;53.100;6.686;2023-10-09T12:46:59;17.50;99.90
54684;DHT22;40582;53.100;6.686;2023-10-09T12:49:30;17.50;99.90
54684;DHT22;40582;53.100;6.686;2023-10-09T12:51:55;17.50;99.90
54684;DHT22;40582;53.100;6.686;2023-10-09T12:54:25;17.50;99.90
54684;DHT22;40582;53.100;6.686;2023-10-09T12:56:54;17.50;99.90
54684;DHT22;40582;53.100;6.686;2023-10-09T12:59:20;17.60;99.90
54684;DHT22;40582;53.100;6.686;2023-10-09T13:01:47;17.70;99.90
54684;DHT22;40582;53.100;6.686;2023-10-09T13:04:23;17.70;99.90
54684;DHT22;40582;53.100;6.686;2023-10-09T13:06:49;17.90;99.90
54684;DHT22;40582;53.100;6.686;2023-10-09T13:09:20;18.00;99.90
54684;DHT22;40582;53.100;6.686;2023-10-09T13:12:01;18.30;99.90
54684;DHT22;40582;53.100;6.686;2023-10-09T13:14:28;18.40;99.90
54684;DHT22;40582;53.100;6.686;2023-10-09T13:16:53;18.50;99.90
54684;DHT22;40582;53.100;6.686;2023-10-09T13:19:20;18.50;99.90
54684;DHT22;40582;53.100;6.686;2023-10-09T13:21:49;18.50;99.90
54684;DHT22;40582;53.100;6.686;2023-10-09T13:24:15;18.40;99.90
54684;DHT22;40582;53.100;6.686;2023-10-09T13:26:44;18.30;99.90
54684;DHT22;40582;53.100;6.686;2023-10-09T13:29:12;18.10;99.90
54684;DHT22;40582;53.100;6.686;2023-10-09T13:31:39;17.90;99.90
54684;DHT22;40582;53.100;6.686;2023-10-09T13:34:12;17.80;99.90
54684;DHT22;40582;53.100;6.686;2023-10-09T13:36:41;17.70;99.90
54684;DHT22;40582;53.100;6.686;2023-10-09T13:39:15;17.70;99.90
54684;DHT22;40582;53.100;6.686;2023-10-09T13:41:54;17.70;99.90
54684;DHT22;40582;53.100;6.686;2023-10-09T13:44:29;17.70;99.90
54684;DHT22;40582;53.100;6.686;2023-10-09T13:47:05;17.60;99.90
54684;DHT22;40582;53.100;6.686;2023-10-09T13:49:31;17.50;99.90
54684;DHT22;40582;53.100;6.686;2023-10-09T13:52:02;17.40;99.90
54684;DHT22;40582;53.100;6.686;2023-10-09T13:54:28;17.40;99.90
54684;DHT22;40582;53.100;6.686;2023-10-09T13:57:05;17.40;99.90
54684;DHT22;40582;53.100;6.686;2023-10-09T13:59:32;17.30;99.90
54684;DHT22;40582;53.100;6.686;2023-10-09T14:02:00;17.30;99.90
54684;DHT22;40582;53.100;6.686;2023-10-09T14:04:28;17.30;99.90
54684;DHT22;40582;53.100;6.686;2023-10-09T14:06:54;17.20;99.90
54684;DHT22;40582;53.100;6.686;2023-10-09T14:09:26;17.10;99.90
54684;DHT22;40582;53.100;6.686;2023-10-09T14:12:05;17.00;99.90
54684;DHT22;40582;53.100;6.686;2023-10-09T14:14:39;17.00;99.90
54684;DHT22;40582;53.100;6.686;2023-10-09T14:17:19;17.00;99.90
54684;DHT22;40582;53.100;6.686;2023-10-09T14:19:49;17.00;99.90
54684;DHT22;40582;53.100;6.686;2023-10-09T14:22:25;17.00;99.90
54684;DHT22;40582;53.100;6.686;2023-10-09T14:24:53;17.00;99.90
54684;DHT22;40582;53.100;6.686;2023-10-09T14:27:26;17.00;99.90
54684;DHT22;40582;53.100;6.686;2023-10-09T14:29:53;17.00;99.90
54684;DHT22;40582;53.100;6.686;2023-10-09T14:32:25;17.00;99.90
54684;DHT22;40582;53.100;6.686;2023-10-09T14:34:55;17.00;99.90
54684;DHT22;40582;53.100;6.686;2023-10-09T14:37:29;17.00;99.90
54684;DHT22;40582;53.100;6.686;2023-10-09T14:39:58;17.00;99.90
54684;DHT22;40582;53.100;6.686;2023-10-09T14:42:24;17.00;99.90
54684;DHT22;40582;53.100;6.686;2023-10-09T14:44:53;17.00;99.90
54684;DHT22;40582;53.100;6.686;2023-10-09T14:47:18;17.00;99.90
54684;DHT22;40582;53.100;6.686;2023-10-09T14:49:47;17.00;99.90
54684;DHT22;40582;53.100;6.686;2023-10-09T14:52:14;17.00;99.90
54684;DHT22;40582;53.100;6.686;2023-10-09T14:54:44;17.00;99.90
54684;DHT22;40582;53.100;6.686;2023-10-09T14:57:11;17.00;99.90
54684;DHT22;40582;53.100;6.686;2023-10-09T14:59:37;17.00;99.90
54684;DHT22;40582;53.100;6.686;2023-10-09T15:02:03;17.00;99.90
54684;DHT22;40582;53.100;6.686;2023-10-09T15:04:31;16.90;99.90
54684;DHT22;40582;53.100;6.686;2023-10-09T15:06:57;16.90;99.90
54684;DHT22;40582;53.100;6.686;2023-10-09T15:09:23;16.90;99.90
54684;DHT22;40582;53.100;6.686;2023-10-09T15:11:50;16.80;99.90
54684;DHT22;40582;53.100;6.686;2023-10-09T15:14:16;16.80;99.90
54684;DHT22;40582;53.100;6.686;2023-10-09T15:16:44;16.70;99.90
54684;DHT22;40582;53.100;6.686;2023-10-09T15:19:11;16.70;99.90
54684;DHT22;40582;53.100;6.686;2023-10-09T15:21:38;16.70;99.90
54684;DHT22;40582;53.100;6.686;2023-10-09T15:24:18;16.60;99.90
54684;DHT22;40582;53.100;6.686;2023-10-09T15:26:47;16.60;99.90
54684;DHT22;40582;53.100;6.686;2023-10-09T15:29:18;16.60;99.90
54684;DHT22;40582;53.100;6.686;2023-10-09T15:31:45;16.70;99.90
54684;DHT22;40582;53.100;6.686;2023-10-09T15:34:12;16.70;99.90
54684;DHT22;40582;53.100;6.686;2023-10-09T15:36:38;16.70;99.90
54684;DHT22;40582;53.100;6.686;2023-10-09T15:39:05;16.70;99.90
54684;DHT22;40582;53.100;6.686;2023-10-09T15:41:33;16.70;99.90
54684;DHT22;40582;53.100;6.686;2023-10-09T15:44:00;16.70;99.90
54684;DHT22;40582;53.100;6.686;2023-10-09T15:46:27;16.70;99.90
54684;DHT22;40582;53.100;6.686;2023-10-09T15:48:59;16.60;99.90
54684;DHT22;40582;53.100;6.686;2023-10-09T15:51:27;16.60;99.90
54684;DHT22;40582;53.100;6.686;2023-10-09T15:53:52;16.60;99.90
54684;DHT22;40582;53.100;6.686;2023-10-09T15:56:18;16.50;99.90
54684;DHT22;40582;53.100;6.686;2023-10-09T15:58:44;16.50;99.90
54684;DHT22;40582;53.100;6.686;2023-10-09T16:01:10;16.50;99.90
54684;DHT22;40582;53.100;6.686;2023-10-09T16:03:42;16.40;99.90
54684;DHT22;40582;53.100;6.686;2023-10-09T16:06:09;16.40;99.90
54684;DHT22;40582;53.100;6.686;2023-10-09T16:08:44;16.40;99.90
54684;DHT22;40582;53.100;6.686;2023-10-09T16:11:17;16.40;99.90
54684;DHT22;40582;53.100;6.686;2023-10-09T16:13:44;16.40;99.90
54684;DHT22;40582;53.100;6.686;2023-10-09T16:16:09;16.30;99.90
54684;DHT22;40582;53.100;6.686;2023-10-09T16:18:35;16.30;99.90
54684;DHT22;40582;53.100;6.686;2023-10-09T16:21:04;16.30;99.90
54684;DHT22;40582;53.100;6.686;2023-10-09T16:23:31;16.30;99.90
54684;DHT22;40582;53.100;6.686;2023-10-09T16:25:57;16.30;99.90
54684;DHT22;40582;53.100;6.686;2023-10-09T16:28:26;16.20;99.90
54684;DHT22;40582;53.100;6.686;2023-10-09T16:30:52;16.20;99.90
54684;DHT22;40582;53.100;6.686;2023-10-09T16:33:19;16.20;99.90